sensor_id;sensor_type;location;lat;lon;timestamp;temperature;humidity
75170;SHT31;63749;49.186;9.222;2024-03-25T00:00:41;6.76;81.54
75170;SHT31;63749;49.186;9.222;2024-03-25T00:03:06;6.69;81.74
75170;SHT31;63749;49.186;9.222;2024-03-25T00:05:33;6.77;81.74
75170;SHT31;63749;49.186;9.222;2024-03-25T00:07:58;6.74;81.96
75170;SHT31;63749;49.186;9.222;2024-03-25T00:10:24;6.70;81.95
75170;SHT31;63749;49.186;9.222;2024-03-25T00:12:49;6.72;81.92
75170;SHT31;63749;49.186;9.222;2024-03-25T00:15:19;6.72;81.76
75170;SHT31;63749;49.186;9.222;2024-03-25T00:17:46;6.73;81.66
75170;SHT31;63749;49.186;9.222;2024-03-25T00:20:12;6.67;81.97
75170;SHT31;63749;49.186;9.222;2024-03-25T00:22:38;6.69;82.20
75170;SHT31;63749;49.186;9.222;2024-03-25T00:25:04;6.69;81.87
75170;SHT31;63749;49.186;9.222;2024-03-25T00:27:29;6.69;82.10
75170;SHT31;63749;49.186;9.222;2024-03-25T00:29:56;6.66;82.37
75170;SHT31;63749;49.186;9.222;2024-03-25T00:32:21;6.60;82.55
75170;SHT31;63749;49.186;9.222;2024-03-25T00:34:46;6.63;82.51
75170;SHT31;63749;49.186;9.222;2024-03-25T00:37:12;6.64;82.48
75170;SHT31;63749;49.186;9.222;2024-03-25T00:39:37;6.60;82.64
75170;SHT31;63749;49.186;9.222;2024-03-25T00:42:03;6.66;82.26
75170;SHT31;63749;49.186;9.222;2024-03-25T00:44:28;6.58;82.78
75170;SHT31;63749;49.186;9.222;2024-03-25T00:46:54;6.52;83.14
75170;SHT31;63749;49.186;9.222;2024-03-25T00:49:19;6.53;83.18
75170;SHT31;63749;49.186;9.222;2024-03-25T00:51:44;6.54;82.79
75170;SHT31;63749;49.186;9.222;2024-03-25T00:54:10;6.45;83.32
75170;SHT31;63749;49.186;9.222;2024-03-25T00:56:35;6.36;83.39
75170;SHT31;63749;49.186;9.222;2024-03-25T00:59:01;6.33;83.67
75170;SHT31;63749;49.186;9.222;2024-03-25T01:01:32;6.24;84.03
75170;SHT31;63749;49.186;9.222;2024-03-25T01:03:58;6.12;84.28
75170;SHT31;63749;49.186;9.222;2024-03-25T01:06:23;6.09;84.56
75170;SHT31;63749;49.186;9.222;2024-03-25T01:08:50;6.15;84.24
75170;SHT31;63749;49.186;9.222;2024-03-25T01:11:15;6.09;84.30
75170;SHT31;63749;49.186;9.222;2024-03-25T01:13:40;6.06;84.67
75170;SHT31;63749;49.186;9.222;2024-03-25T01:16:07;6.02;84.57
75170;SHT31;63749;49.186;9.222;2024-03-25T01:18:32;5.94;85.17
75170;SHT31;63749;49.186;9.222;2024-03-25T01:20:58;5.93;85.46
75170;SHT31;63749;49.186;9.222;2024-03-25T01:23:23;5.99;84.99
75170;SHT31;63749;49.186;9.222;2024-03-25T01:25:48;5.99;85.11
75170;SHT31;63749;49.186;9.222;2024-03-25T01:28:14;6.05;84.84
75170;SHT31;63749;49.186;9.222;2024-03-25T01:30:39;6.05;84.96
75170;SHT31;63749;49.186;9.222;2024-03-25T01:33:05;6.12;84.59
75170;SHT31;63749;49.186;9.222;2024-03-25T01:35:31;6.19;84.25
75170;SHT31;63749;49.186;9.222;2024-03-25T01:37:56;6.18;84.32
75170;SHT31;63749;49.186;9.222;2024-03-25T01:40:22;6.19;84.32
75170;SHT31;63749;49.186;9.222;2024-03-25T01:43:00;6.18;84.22
75170;SHT31;63749;49.186;9.222;2024-03-25T01:45:28;6.24;84.10
75170;SHT31;63749;49.186;9.222;2024-03-25T01:47:55;6.12;84.56
75170;SHT31;63749;49.186;9.222;2024-03-25T01:50:22;6.05;84.88
75170;SHT31;63749;49.186;9.222;2024-03-25T01:52:48;6.05;84.84
75170;SHT31;63749;49.186;9.222;2024-03-25T01:55:21;5.98;85.26
75170;SHT31;63749;49.186;9.222;2024-03-25T01:57:47;5.94;85.34
75170;SHT31;63749;49.186;9.222;2024-03-25T02:00:13;5.81;85.70
75170;SHT31;63749;49.186;9.222;2024-03-25T02:02:40;5.78;85.76
75170;SHT31;63749;49.186;9.222;2024-03-25T02:05:10;5.78;85.90
75170;SHT31;63749;49.186;9.222;2024-03-25T02:07:36;5.73;86.09
75170;SHT31;63749;49.186;9.222;2024-03-25T02:10:03;5.65;86.32
75170;SHT31;63749;49.186;9.222;2024-03-25T02:12:30;5.58;86.66
75170;SHT31;63749;49.186;9.222;2024-03-25T02:14:56;5.53;86.83
75170;SHT31;63749;49.186;9.222;2024-03-25T02:17:21;5.54;86.65
75170;SHT31;63749;49.186;9.222;2024-03-25T02:19:46;5.57;86.55
75170;SHT31;63749;49.186;9.222;2024-03-25T02:22:12;5.37;87.09
75170;SHT31;63749;49.186;9.222;2024-03-25T02:24:38;5.29;87.58
75170;SHT31;63749;49.186;9.222;2024-03-25T02:27:03;5.22;87.97
75170;SHT31;63749;49.186;9.222;2024-03-25T02:29:35;5.26;87.82
75170;SHT31;63749;49.186;9.222;2024-03-25T02:32:00;5.20;88.00
75170;SHT31;63749;49.186;9.222;2024-03-25T02:34:26;5.18;87.99
75170;SHT31;63749;49.186;9.222;2024-03-25T02:36:52;5.05;88.42
75170;SHT31;63749;49.186;9.222;2024-03-25T02:39:18;5.04;88.68
75170;SHT31;63749;49.186;9.222;2024-03-25T02:41:44;5.04;88.67
75170;SHT31;63749;49.186;9.222;2024-03-25T02:44:09;4.91;88.70
75170;SHT31;63749;49.186;9.222;2024-03-25T02:46:34;4.74;89.52
75170;SHT31;63749;49.186;9.222;2024-03-25T02:49:00;4.81;89.60
75170;SHT31;63749;49.186;9.222;2024-03-25T02:51:25;4.79;89.50
75170;SHT31;63749;49.186;9.222;2024-03-25T02:53:50;4.85;89.68
75170;SHT31;63749;49.186;9.222;2024-03-25T02:56:16;4.99;89.15
75170;SHT31;63749;49.186;9.222;2024-03-25T02:58:41;5.00;88.95
75170;SHT31;63749;49.186;9.222;2024-03-25T03:01:07;4.99;88.89
75170;SHT31;63749;49.186;9.222;2024-03-25T03:03:32;4.93;89.12
75170;SHT31;63749;49.186;9.222;2024-03-25T03:05:57;4.93;89.01
75170;SHT31;63749;49.186;9.222;2024-03-25T03:08:23;4.92;89.31
75170;SHT31;63749;49.186;9.222;2024-03-25T03:10:48;4.79;89.32
75170;SHT31;63749;49.186;9.222;2024-03-25T03:13:14;4.91;89.47
75170;SHT31;63749;49.186;9.222;2024-03-25T03:15:43;4.88;89.32
75170;SHT31;63749;49.186;9.222;2024-03-25T03:18:09;4.89;89.33
75170;SHT31;63749;49.186;9.222;2024-03-25T03:20:35;4.84;89.52
75170;SHT31;63749;49.186;9.222;2024-03-25T03:23:00;4.78;89.59
75170;SHT31;63749;49.186;9.222;2024-03-25T03:25:26;4.65;89.95
75170;SHT31;63749;49.186;9.222;2024-03-25T03:27:51;4.69;89.98
75170;SHT31;63749;49.186;9.222;2024-03-25T03:30:16;4.62;90.04
75170;SHT31;63749;49.186;9.222;2024-03-25T03:32:42;4.50;90.51
75170;SHT31;63749;49.186;9.222;2024-03-25T03:35:07;4.44;90.82
75170;SHT31;63749;49.186;9.222;2024-03-25T03:37:33;4.43;90.88
75170;SHT31;63749;49.186;9.222;2024-03-25T03:39:58;4.29;91.15
75170;SHT31;63749;49.186;9.222;2024-03-25T03:42:23;4.36;91.31
75170;SHT31;63749;49.186;9.222;2024-03-25T03:44:49;4.37;91.27
75170;SHT31;63749;49.186;9.222;2024-03-25T03:47:14;4.27;91.51
75170;SHT31;63749;49.186;9.222;2024-03-25T03:49:39;4.20;91.60
75170;SHT31;63749;49.186;9.222;2024-03-25T03:52:05;4.21;91.85
75170;SHT31;63749;49.186;9.222;2024-03-25T03:54:30;4.13;91.96
75170;SHT31;63749;49.186;9.222;2024-03-25T03:56:55;4.05;92.21
75170;SHT31;63749;49.186;9.222;2024-03-25T03:59:21;4.00;92.31
75170;SHT31;63749;49.186;9.222;2024-03-25T04:01:46;4.17;92.13
75170;SHT31;63749;49.186;9.222;2024-03-25T04:04:11;4.23;91.89
75170;SHT31;63749;49.186;9.222;2024-03-25T04:06:37;4.10;91.94
75170;SHT31;63749;49.186;9.222;2024-03-25T04:09:06;4.11;92.13
75170;SHT31;63749;49.186;9.222;2024-03-25T04:11:31;4.13;92.05
75170;SHT31;63749;49.186;9.222;2024-03-25T04:13:57;4.13;92.05
75170;SHT31;63749;49.186;9.222;2024-03-25T04:16:23;4.18;91.85
75170;SHT31;63749;49.186;9.222;2024-03-25T04:18:49;4.20;91.89
75170;SHT31;63749;49.186;9.222;2024-03-25T04:21:14;4.23;91.80
75170;SHT31;63749;49.186;9.222;2024-03-25T04:23:40;4.24;91.69
75170;SHT31;63749;49.186;9.222;2024-03-25T04:26:06;4.23;91.72
75170;SHT31;63749;49.186;9.222;2024-03-25T04:28:33;4.11;91.88
75170;SHT31;63749;49.186;9.222;2024-03-25T04:30:59;4.06;92.20
75170;SHT31;63749;49.186;9.222;2024-03-25T04:33:24;4.10;92.26
75170;SHT31;63749;49.186;9.222;2024-03-25T04:35:49;4.11;92.01
75170;SHT31;63749;49.186;9.222;2024-03-25T04:38:18;4.26;91.84
75170;SHT31;63749;49.186;9.222;2024-03-25T04:40:43;4.13;91.78
75170;SHT31;63749;49.186;9.222;2024-03-25T04:43:09;4.11;92.01
75170;SHT31;63749;49.186;9.222;2024-03-25T04:45:34;4.02;92.20
75170;SHT31;63749;49.186;9.222;2024-03-25T04:48:00;3.92;92.55
75170;SHT31;63749;49.186;9.222;2024-03-25T04:50:26;3.93;92.68
75170;SHT31;63749;49.186;9.222;2024-03-25T04:52:52;3.86;92.87
75170;SHT31;63749;49.186;9.222;2024-03-25T04:55:18;3.85;93.11
75170;SHT31;63749;49.186;9.222;2024-03-25T04:57:43;3.99;92.95
75170;SHT31;63749;49.186;9.222;2024-03-25T05:00:09;3.93;92.79
75170;SHT31;63749;49.186;9.222;2024-03-25T05:02:37;3.82;93.05
75170;SHT31;63749;49.186;9.222;2024-03-25T05:05:04;3.85;93.05
75170;SHT31;63749;49.186;9.222;2024-03-25T05:07:29;3.83;93.05
75170;SHT31;63749;49.186;9.222;2024-03-25T05:09:55;3.93;92.93
75170;SHT31;63749;49.186;9.222;2024-03-25T05:12:21;3.93;92.76
75170;SHT31;63749;49.186;9.222;2024-03-25T05:14:46;3.93;92.90
75170;SHT31;63749;49.186;9.222;2024-03-25T05:17:12;3.92;92.55
75170;SHT31;63749;49.186;9.222;2024-03-25T05:19:37;3.83;93.07
75170;SHT31;63749;49.186;9.222;2024-03-25T05:22:03;3.93;93.09
75170;SHT31;63749;49.186;9.222;2024-03-25T05:24:28;3.85;92.94
75170;SHT31;63749;49.186;9.222;2024-03-25T05:26:53;3.85;93.04
75170;SHT31;63749;49.186;9.222;2024-03-25T05:29:19;3.82;93.14
75170;SHT31;63749;49.186;9.222;2024-03-25T05:31:58;3.72;93.08
75170;SHT31;63749;49.186;9.222;2024-03-25T05:34:25;3.65;93.40
75170;SHT31;63749;49.186;9.222;2024-03-25T05:36:51;3.54;93.50
75170;SHT31;63749;49.186;9.222;2024-03-25T05:39:16;3.62;94.11
75170;SHT31;63749;49.186;9.222;2024-03-25T05:41:42;3.83;93.85
75170;SHT31;63749;49.186;9.222;2024-03-25T05:44:07;3.95;93.48
75170;SHT31;63749;49.186;9.222;2024-03-25T05:46:32;3.95;93.17
75170;SHT31;63749;49.186;9.222;2024-03-25T05:49:03;3.93;93.09
75170;SHT31;63749;49.186;9.222;2024-03-25T05:51:29;4.00;93.02
75170;SHT31;63749;49.186;9.222;2024-03-25T05:53:54;4.10;93.01
75170;SHT31;63749;49.186;9.222;2024-03-25T05:56:20;4.17;92.64
75170;SHT31;63749;49.186;9.222;2024-03-25T05:58:45;4.20;92.42
75170;SHT31;63749;49.186;9.222;2024-03-25T06:01:11;4.24;91.98
75170;SHT31;63749;49.186;9.222;2024-03-25T06:03:36;4.26;92.04
75170;SHT31;63749;49.186;9.222;2024-03-25T06:06:01;4.20;92.06
75170;SHT31;63749;49.186;9.222;2024-03-25T06:08:27;4.16;92.07
75170;SHT31;63749;49.186;9.222;2024-03-25T06:10:54;4.16;92.06
75170;SHT31;63749;49.186;9.222;2024-03-25T06:13:20;4.21;91.94
75170;SHT31;63749;49.186;9.222;2024-03-25T06:15:46;4.20;92.14
75170;SHT31;63749;49.186;9.222;2024-03-25T06:18:11;4.13;92.39
75170;SHT31;63749;49.186;9.222;2024-03-25T06:20:39;4.17;92.33
75170;SHT31;63749;49.186;9.222;2024-03-25T06:23:05;4.10;92.20
75170;SHT31;63749;49.186;9.222;2024-03-25T06:25:31;4.10;92.82
75170;SHT31;63749;49.186;9.222;2024-03-25T06:27:57;4.05;92.74
75170;SHT31;63749;49.186;9.222;2024-03-25T06:30:22;4.03;92.77
75170;SHT31;63749;49.186;9.222;2024-03-25T06:33:06;4.23;92.49
75170;SHT31;63749;49.186;9.222;2024-03-25T06:35:50;4.37;92.31
75170;SHT31;63749;49.186;9.222;2024-03-25T06:38:15;4.53;92.33
75170;SHT31;63749;49.186;9.222;2024-03-25T06:40:41;4.74;91.82
75170;SHT31;63749;49.186;9.222;2024-03-25T06:43:07;5.09;90.46
75170;SHT31;63749;49.186;9.222;2024-03-25T06:45:32;5.25;89.92
75170;SHT31;63749;49.186;9.222;2024-03-25T06:47:58;5.37;89.35
75170;SHT31;63749;49.186;9.222;2024-03-25T06:50:24;5.44;89.08
75170;SHT31;63749;49.186;9.222;2024-03-25T06:52:49;5.56;88.83
75170;SHT31;63749;49.186;9.222;2024-03-25T06:55:15;5.64;88.70
75170;SHT31;63749;49.186;9.222;2024-03-25T06:57:40;5.70;88.37
75170;SHT31;63749;49.186;9.222;2024-03-25T07:00:06;5.79;87.86
75170;SHT31;63749;49.186;9.222;2024-03-25T07:02:35;5.93;87.50
75170;SHT31;63749;49.186;9.222;2024-03-25T07:05:00;5.97;87.09
75170;SHT31;63749;49.186;9.222;2024-03-25T07:07:26;6.02;86.48
75170;SHT31;63749;49.186;9.222;2024-03-25T07:09:51;6.16;85.54
75170;SHT31;63749;49.186;9.222;2024-03-25T07:12:16;6.04;85.62
75170;SHT31;63749;49.186;9.222;2024-03-25T07:14:42;6.05;85.49
75170;SHT31;63749;49.186;9.222;2024-03-25T07:17:07;6.06;85.28
75170;SHT31;63749;49.186;9.222;2024-03-25T07:19:32;6.21;84.69
75170;SHT31;63749;49.186;9.222;2024-03-25T07:21:58;6.15;84.48
75170;SHT31;63749;49.186;9.222;2024-03-25T07:24:23;6.36;83.80
75170;SHT31;63749;49.186;9.222;2024-03-25T07:26:48;6.29;83.69
75170;SHT31;63749;49.186;9.222;2024-03-25T07:29:14;6.49;82.65
75170;SHT31;63749;49.186;9.222;2024-03-25T07:31:39;6.53;82.75
75170;SHT31;63749;49.186;9.222;2024-03-25T07:34:04;6.73;82.74
75170;SHT31;63749;49.186;9.222;2024-03-25T07:36:30;6.93;81.05
75170;SHT31;63749;49.186;9.222;2024-03-25T07:38:58;7.12;80.22
75170;SHT31;63749;49.186;9.222;2024-03-25T07:41:24;7.32;79.51
75170;SHT31;63749;49.186;9.222;2024-03-25T07:43:49;7.46;77.55
75170;SHT31;63749;49.186;9.222;2024-03-25T07:46:15;7.55;75.52
75170;SHT31;63749;49.186;9.222;2024-03-25T07:48:40;7.61;75.72
75170;SHT31;63749;49.186;9.222;2024-03-25T07:51:07;7.48;76.22
75170;SHT31;63749;49.186;9.222;2024-03-25T07:53:32;7.65;74.87
75170;SHT31;63749;49.186;9.222;2024-03-25T07:55:58;7.69;74.04
75170;SHT31;63749;49.186;9.222;2024-03-25T07:58:23;7.91;72.59
75170;SHT31;63749;49.186;9.222;2024-03-25T08:00:49;7.95;73.05
75170;SHT31;63749;49.186;9.222;2024-03-25T08:03:14;8.14;71.26
75170;SHT31;63749;49.186;9.222;2024-03-25T08:05:39;8.48;71.01
75170;SHT31;63749;49.186;9.222;2024-03-25T08:08:05;8.62;71.18
75170;SHT31;63749;49.186;9.222;2024-03-25T08:10:30;8.79;67.99
75170;SHT31;63749;49.186;9.222;2024-03-25T08:12:56;8.82;66.40
75170;SHT31;63749;49.186;9.222;2024-03-25T08:15:21;8.93;64.46
75170;SHT31;63749;49.186;9.222;2024-03-25T08:17:46;9.14;65.06
75170;SHT31;63749;49.186;9.222;2024-03-25T08:20:12;9.30;65.75
75170;SHT31;63749;49.186;9.222;2024-03-25T08:22:38;9.50;66.68
75170;SHT31;63749;49.186;9.222;2024-03-25T08:25:03;9.64;64.98
75170;SHT31;63749;49.186;9.222;2024-03-25T08:27:29;9.85;62.92
75170;SHT31;63749;49.186;9.222;2024-03-25T08:29:55;9.83;63.22
75170;SHT31;63749;49.186;9.222;2024-03-25T08:32:20;9.95;63.96
75170;SHT31;63749;49.186;9.222;2024-03-25T08:34:45;9.78;63.69
75170;SHT31;63749;49.186;9.222;2024-03-25T08:37:11;9.78;63.78
75170;SHT31;63749;49.186;9.222;2024-03-25T08:39:37;9.70;64.37
75170;SHT31;63749;49.186;9.222;2024-03-25T08:42:02;9.74;63.96
75170;SHT31;63749;49.186;9.222;2024-03-25T08:44:28;9.91;62.55
75170;SHT31;63749;49.186;9.222;2024-03-25T08:46:53;9.96;60.92
75170;SHT31;63749;49.186;9.222;2024-03-25T08:49:18;9.92;60.75
75170;SHT31;63749;49.186;9.222;2024-03-25T08:51:44;10.23;61.05
75170;SHT31;63749;49.186;9.222;2024-03-25T08:54:09;10.33;59.84
75170;SHT31;63749;49.186;9.222;2024-03-25T08:56:34;10.24;61.17
75170;SHT31;63749;49.186;9.222;2024-03-25T08:59:00;10.16;60.74
75170;SHT31;63749;49.186;9.222;2024-03-25T09:01:25;10.14;59.87
75170;SHT31;63749;49.186;9.222;2024-03-25T09:03:51;10.23;59.93
75170;SHT31;63749;49.186;9.222;2024-03-25T09:06:16;10.20;59.63
75170;SHT31;63749;49.186;9.222;2024-03-25T09:08:41;10.17;60.07
75170;SHT31;63749;49.186;9.222;2024-03-25T09:11:25;10.22;58.97
75170;SHT31;63749;49.186;9.222;2024-03-25T09:13:52;10.14;58.78
75170;SHT31;63749;49.186;9.222;2024-03-25T09:16:18;10.14;57.87
75170;SHT31;63749;49.186;9.222;2024-03-25T09:18:43;10.17;57.80
75170;SHT31;63749;49.186;9.222;2024-03-25T09:21:08;10.22;57.51
75170;SHT31;63749;49.186;9.222;2024-03-25T09:23:34;10.28;58.50
75170;SHT31;63749;49.186;9.222;2024-03-25T09:25:59;10.30;58.71
75170;SHT31;63749;49.186;9.222;2024-03-25T09:28:24;10.34;58.16
75170;SHT31;63749;49.186;9.222;2024-03-25T09:30:50;10.29;58.21
75170;SHT31;63749;49.186;9.222;2024-03-25T09:33:15;10.28;57.97
75170;SHT31;63749;49.186;9.222;2024-03-25T09:35:41;10.28;58.18
75170;SHT31;63749;49.186;9.222;2024-03-25T09:38:06;10.37;59.17
75170;SHT31;63749;49.186;9.222;2024-03-25T09:40:32;10.56;58.50
75170;SHT31;63749;49.186;9.222;2024-03-25T09:43:02;10.70;57.61
75170;SHT31;63749;49.186;9.222;2024-03-25T09:45:29;10.91;57.57
75170;SHT31;63749;49.186;9.222;2024-03-25T09:47:55;10.70;58.26
75170;SHT31;63749;49.186;9.222;2024-03-25T09:50:21;10.72;57.73
75170;SHT31;63749;49.186;9.222;2024-03-25T09:52:50;10.80;58.72
75170;SHT31;63749;49.186;9.222;2024-03-25T09:55:16;10.98;58.03
75170;SHT31;63749;49.186;9.222;2024-03-25T09:57:45;11.32;57.89
75170;SHT31;63749;49.186;9.222;2024-03-25T10:00:11;10.90;56.37
75170;SHT31;63749;49.186;9.222;2024-03-25T10:02:38;10.72;55.67
75170;SHT31;63749;49.186;9.222;2024-03-25T10:05:05;10.85;56.13
75170;SHT31;63749;49.186;9.222;2024-03-25T10:07:30;10.97;55.16
75170;SHT31;63749;49.186;9.222;2024-03-25T10:09:55;11.09;54.80
75170;SHT31;63749;49.186;9.222;2024-03-25T10:12:21;11.15;54.82
75170;SHT31;63749;49.186;9.222;2024-03-25T10:14:47;11.16;54.66
75170;SHT31;63749;49.186;9.222;2024-03-25T10:17:13;11.15;54.98
75170;SHT31;63749;49.186;9.222;2024-03-25T10:19:38;11.16;54.17
75170;SHT31;63749;49.186;9.222;2024-03-25T10:22:08;10.67;53.95
75170;SHT31;63749;49.186;9.222;2024-03-25T10:24:44;10.70;54.61
75170;SHT31;63749;49.186;9.222;2024-03-25T10:27:17;10.63;55.02
75170;SHT31;63749;49.186;9.222;2024-03-25T10:29:43;10.95;53.90
75170;SHT31;63749;49.186;9.222;2024-03-25T10:32:08;11.07;53.10
75170;SHT31;63749;49.186;9.222;2024-03-25T10:34:34;11.11;54.48
75170;SHT31;63749;49.186;9.222;2024-03-25T10:37:01;11.25;54.89
75170;SHT31;63749;49.186;9.222;2024-03-25T10:39:30;11.47;53.57
75170;SHT31;63749;49.186;9.222;2024-03-25T10:41:57;11.43;52.81
75170;SHT31;63749;49.186;9.222;2024-03-25T10:44:27;11.22;53.57
75170;SHT31;63749;49.186;9.222;2024-03-25T10:47:01;11.65;54.93
75170;SHT31;63749;49.186;9.222;2024-03-25T10:49:45;11.89;54.29
75170;SHT31;63749;49.186;9.222;2024-03-25T10:52:14;11.87;54.47
75170;SHT31;63749;49.186;9.222;2024-03-25T10:54:41;11.97;52.01
75170;SHT31;63749;49.186;9.222;2024-03-25T10:57:08;11.98;53.09
75170;SHT31;63749;49.186;9.222;2024-03-25T10:59:35;12.17;52.76
75170;SHT31;63749;49.186;9.222;2024-03-25T11:02:04;12.22;52.09
75170;SHT31;63749;49.186;9.222;2024-03-25T11:04:31;12.08;52.23
75170;SHT31;63749;49.186;9.222;2024-03-25T11:07:09;12.34;52.21
75170;SHT31;63749;49.186;9.222;2024-03-25T11:09:36;12.28;51.46
75170;SHT31;63749;49.186;9.222;2024-03-25T11:12:01;12.58;51.57
75170;SHT31;63749;49.186;9.222;2024-03-25T11:14:27;12.56;50.83
75170;SHT31;63749;49.186;9.222;2024-03-25T11:16:53;12.72;49.11
75170;SHT31;63749;49.186;9.222;2024-03-25T11:19:19;12.65;48.61
75170;SHT31;63749;49.186;9.222;2024-03-25T11:21:46;12.25;49.44
75170;SHT31;63749;49.186;9.222;2024-03-25T11:24:12;12.39;49.65
75170;SHT31;63749;49.186;9.222;2024-03-25T11:26:43;12.52;51.64
75170;SHT31;63749;49.186;9.222;2024-03-25T11:29:08;12.86;52.12
75170;SHT31;63749;49.186;9.222;2024-03-25T11:31:34;12.62;49.80
75170;SHT31;63749;49.186;9.222;2024-03-25T11:34:04;12.75;50.63
75170;SHT31;63749;49.186;9.222;2024-03-25T11:36:29;12.72;49.57
75170;SHT31;63749;49.186;9.222;2024-03-25T11:39:01;12.53;49.23
75170;SHT31;63749;49.186;9.222;2024-03-25T11:41:34;12.66;49.28
75170;SHT31;63749;49.186;9.222;2024-03-25T11:44:01;12.69;49.61
75170;SHT31;63749;49.186;9.222;2024-03-25T11:46:26;12.66;48.57
75170;SHT31;63749;49.186;9.222;2024-03-25T11:48:52;12.44;50.24
75170;SHT31;63749;49.186;9.222;2024-03-25T11:51:18;12.32;49.87
75170;SHT31;63749;49.186;9.222;2024-03-25T11:53:43;12.76;50.97
75170;SHT31;63749;49.186;9.222;2024-03-25T11:56:10;12.89;49.45
75170;SHT31;63749;49.186;9.222;2024-03-25T11:58:36;13.04;48.21
75170;SHT31;63749;49.186;9.222;2024-03-25T12:01:02;13.24;47.97
75170;SHT31;63749;49.186;9.222;2024-03-25T12:03:27;13.38;47.50
75170;SHT31;63749;49.186;9.222;2024-03-25T12:05:53;13.43;47.02
75170;SHT31;63749;49.186;9.222;2024-03-25T12:08:18;13.11;46.97
75170;SHT31;63749;49.186;9.222;2024-03-25T12:10:43;13.14;47.88
75170;SHT31;63749;49.186;9.222;2024-03-25T12:13:28;13.11;47.93
75170;SHT31;63749;49.186;9.222;2024-03-25T12:15:53;13.27;47.95
75170;SHT31;63749;49.186;9.222;2024-03-25T12:18:20;13.44;46.54
75170;SHT31;63749;49.186;9.222;2024-03-25T12:20:46;13.17;46.52
75170;SHT31;63749;49.186;9.222;2024-03-25T12:23:11;13.23;46.58
75170;SHT31;63749;49.186;9.222;2024-03-25T12:25:37;13.34;45.81
75170;SHT31;63749;49.186;9.222;2024-03-25T12:28:08;13.10;46.84
75170;SHT31;63749;49.186;9.222;2024-03-25T12:30:48;13.31;46.15
75170;SHT31;63749;49.186;9.222;2024-03-25T12:33:14;13.38;45.87
75170;SHT31;63749;49.186;9.222;2024-03-25T12:35:39;13.38;46.21
75170;SHT31;63749;49.186;9.222;2024-03-25T12:38:05;13.43;45.10
75170;SHT31;63749;49.186;9.222;2024-03-25T12:40:31;13.40;47.71
75170;SHT31;63749;49.186;9.222;2024-03-25T12:42:56;13.44;45.18
75170;SHT31;63749;49.186;9.222;2024-03-25T12:45:22;13.74;45.72
75170;SHT31;63749;49.186;9.222;2024-03-25T12:47:51;13.58;44.99
75170;SHT31;63749;49.186;9.222;2024-03-25T12:50:16;13.30;45.60
75170;SHT31;63749;49.186;9.222;2024-03-25T12:52:41;12.86;46.00
75170;SHT31;63749;49.186;9.222;2024-03-25T12:55:07;13.33;45.69
75170;SHT31;63749;49.186;9.222;2024-03-25T12:57:32;12.97;45.72
75170;SHT31;63749;49.186;9.222;2024-03-25T12:59:58;13.28;46.00
75170;SHT31;63749;49.186;9.222;2024-03-25T13:02:24;14.09;44.38
75170;SHT31;63749;49.186;9.222;2024-03-25T13:04:50;15.29;41.66
75170;SHT31;63749;49.186;9.222;2024-03-25T13:07:15;16.38;39.41
75170;SHT31;63749;49.186;9.222;2024-03-25T13:09:41;16.61;39.61
75170;SHT31;63749;49.186;9.222;2024-03-25T13:12:06;16.49;40.61
75170;SHT31;63749;49.186;9.222;2024-03-25T13:14:32;18.22;38.67
75170;SHT31;63749;49.186;9.222;2024-03-25T13:16:57;17.99;38.35
75170;SHT31;63749;49.186;9.222;2024-03-25T13:19:23;19.16;35.57
75170;SHT31;63749;49.186;9.222;2024-03-25T13:21:48;19.49;34.57
75170;SHT31;63749;49.186;9.222;2024-03-25T13:24:14;21.08;35.04
75170;SHT31;63749;49.186;9.222;2024-03-25T13:26:40;20.56;36.47
75170;SHT31;63749;49.186;9.222;2024-03-25T13:29:05;21.20;33.35
75170;SHT31;63749;49.186;9.222;2024-03-25T13:31:33;22.01;31.34
75170;SHT31;63749;49.186;9.222;2024-03-25T13:33:58;21.41;31.90
75170;SHT31;63749;49.186;9.222;2024-03-25T13:36:24;21.59;32.74
75170;SHT31;63749;49.186;9.222;2024-03-25T13:38:50;19.94;33.52
75170;SHT31;63749;49.186;9.222;2024-03-25T13:41:15;20.77;31.53
75170;SHT31;63749;49.186;9.222;2024-03-25T13:43:43;19.83;33.27
75170;SHT31;63749;49.186;9.222;2024-03-25T13:46:08;20.42;34.08
75170;SHT31;63749;49.186;9.222;2024-03-25T13:48:34;20.97;31.84
75170;SHT31;63749;49.186;9.222;2024-03-25T13:50:59;22.33;29.43
75170;SHT31;63749;49.186;9.222;2024-03-25T13:53:25;21.26;32.85
75170;SHT31;63749;49.186;9.222;2024-03-25T13:55:50;22.71;29.06
75170;SHT31;63749;49.186;9.222;2024-03-25T13:58:16;23.08;28.89
75170;SHT31;63749;49.186;9.222;2024-03-25T14:00:41;22.94;30.34
75170;SHT31;63749;49.186;9.222;2024-03-25T14:03:06;23.32;28.79
75170;SHT31;63749;49.186;9.222;2024-03-25T14:05:32;23.46;28.92
75170;SHT31;63749;49.186;9.222;2024-03-25T14:07:58;23.62;27.98
75170;SHT31;63749;49.186;9.222;2024-03-25T14:10:23;23.38;29.18
75170;SHT31;63749;49.186;9.222;2024-03-25T14:12:48;24.20;27.43
75170;SHT31;63749;49.186;9.222;2024-03-25T14:15:14;23.35;27.98
75170;SHT31;63749;49.186;9.222;2024-03-25T14:17:39;23.80;28.39
75170;SHT31;63749;49.186;9.222;2024-03-25T14:20:05;23.62;28.72
75170;SHT31;63749;49.186;9.222;2024-03-25T14:22:32;23.93;29.65
75170;SHT31;63749;49.186;9.222;2024-03-25T14:24:58;23.48;27.87
75170;SHT31;63749;49.186;9.222;2024-03-25T14:27:24;23.00;28.52
75170;SHT31;63749;49.186;9.222;2024-03-25T14:29:50;23.53;29.01
75170;SHT31;63749;49.186;9.222;2024-03-25T14:32:18;23.50;29.94
75170;SHT31;63749;49.186;9.222;2024-03-25T14:34:44;22.80;29.55
75170;SHT31;63749;49.186;9.222;2024-03-25T14:37:09;22.20;30.05
75170;SHT31;63749;49.186;9.222;2024-03-25T14:39:34;24.25;28.05
75170;SHT31;63749;49.186;9.222;2024-03-25T14:42:00;24.52;28.26
75170;SHT31;63749;49.186;9.222;2024-03-25T14:44:25;23.42;28.53
75170;SHT31;63749;49.186;9.222;2024-03-25T14:46:50;22.49;29.77
75170;SHT31;63749;49.186;9.222;2024-03-25T14:49:16;23.73;29.26
75170;SHT31;63749;49.186;9.222;2024-03-25T14:51:41;25.05;27.31
75170;SHT31;63749;49.186;9.222;2024-03-25T14:54:06;23.26;28.98
75170;SHT31;63749;49.186;9.222;2024-03-25T14:56:32;22.40;29.82
75170;SHT31;63749;49.186;9.222;2024-03-25T14:58:57;23.46;28.17
75170;SHT31;63749;49.186;9.222;2024-03-25T15:01:23;23.66;29.08
75170;SHT31;63749;49.186;9.222;2024-03-25T15:03:48;23.65;29.01
75170;SHT31;63749;49.186;9.222;2024-03-25T15:06:13;23.99;27.98
75170;SHT31;63749;49.186;9.222;2024-03-25T15:08:39;24.57;27.32
75170;SHT31;63749;49.186;9.222;2024-03-25T15:11:05;24.38;27.62
75170;SHT31;63749;49.186;9.222;2024-03-25T15:13:31;24.14;27.76
75170;SHT31;63749;49.186;9.222;2024-03-25T15:15:57;22.83;29.24
75170;SHT31;63749;49.186;9.222;2024-03-25T15:18:22;22.43;29.84
75170;SHT31;63749;49.186;9.222;2024-03-25T15:20:59;23.49;28.89
75170;SHT31;63749;49.186;9.222;2024-03-25T15:23:24;23.10;28.82
75170;SHT31;63749;49.186;9.222;2024-03-25T15:25:50;23.07;28.29
75170;SHT31;63749;49.186;9.222;2024-03-25T15:28:15;23.39;28.27
75170;SHT31;63749;49.186;9.222;2024-03-25T15:30:40;22.91;28.63
75170;SHT31;63749;49.186;9.222;2024-03-25T15:33:06;22.53;29.42